Dades meteomassalio
Diari Summary for Agost 18, 2017 Units:  Metric    English   Both
« Previous Day
Next Day »
Diari Semanal Mensual Anual Personalitzat
  Maxima: Minima: Mijana:
Temperatura: -17.8 °C -6.8 °C -2.3 °C
Rosada: -17.8 °C -9.9 °C -8.2 °C
Humitat: Humidity % 29 % 55 %
Velocitat del vent: 0 km/h 0 km/h 15.6 km/h
Racha vent: 0 km/h - -
Vent:- - South
Pressio: 0 hPa 34256.2 hPa -
Pluja: 0 mm    
Historical Graphs
 
 
Tabular Data for Agost 18, 2017
Time Temperature Dew Point Pressure Wind Wind Speed Wind Gust Humidity Rainfall Rate (Hourly) solar Conditions
-17.8 °C -17.8 °C 0 hPa Calm     Humidity % 0 mm SolarRadiationWatts/m^2 W/m2 Conditions
00:04 -3.7 °C -7.9 °C 34395 hPa Calm     63 % 0 mm 0.0 W/m2 CLR
00:09 -3.7 °C -7.7 °C 34395 hPa Calm     64 % 0 mm 0.0 W/m2 CLR
00:14 -3.7 °C -7.7 °C 34395 hPa Calm     65 % 0 mm 0.0 W/m2 CLR
00:19 -3.8 °C -7.6 °C 34395 hPa Calm     66 % 0 mm 0.0 W/m2 CLR
00:24 -3.8 °C -7.6 °C 34395 hPa Calm     66 % 0 mm 0.0 W/m2 CLR
00:29 -3.9 °C -7.4 °C 34395 hPa Calm     68 % 0 mm 0.0 W/m2 CLR
00:34 -3.9 °C -7.4 °C 34395 hPa Calm     68 % 0 mm 0.0 W/m2 CLR
00:39 -4 °C -7.4 °C 34395 hPa Calm     69 % 0 mm 0.0 W/m2 CLR
00:44 -4.1 °C -7.4 °C 34384.8 hPa Calm     69 % 0 mm 0.0 W/m2 CLR
00:49 -4.1 °C -7.6 °C 34384.8 hPa Calm     68 % 0 mm 0.0 W/m2 CLR
00:54 -4.1 °C -7.4 °C 34384.8 hPa Calm     69 % 0 mm 0.0 W/m2 CLR
00:59 -4.1 °C -7.4 °C 34384.8 hPa Calm     69 % 0 mm 0.0 W/m2 CLR
01:04 -4.1 °C -7.4 °C 34384.8 hPa Calm     69 % 0 mm 0.0 W/m2 CLR
01:09 -4.1 °C -7.6 °C 34384.8 hPa Calm     68 % 0 mm 0.0 W/m2 CLR
01:14 -4.2 °C -7.6 °C 34384.8 hPa Calm     69 % 0 mm 0.0 W/m2 CLR
01:19 -4.2 °C -7.6 °C 34384.8 hPa Calm     69 % 0 mm 0.0 W/m2 CLR
01:24 -4.2 °C -7.6 °C 34384.8 hPa Calm     69 % 0 mm 0.0 W/m2 CLR
01:29 -4.2 °C -7.6 °C 34384.8 hPa Calm     69 % 0 mm 0.0 W/m2 CLR
01:34 -4.2 °C -7.6 °C 34384.8 hPa Calm     69 % 0 mm 0.0 W/m2 CLR
01:39 -4.3 °C -7.6 °C 34384.8 hPa Calm     69 % 0 mm 0.0 W/m2 CLR
01:44 -4.3 °C -7.6 °C 34384.8 hPa Calm     69 % 0 mm 0.0 W/m2 CLR
01:49 -4.3 °C -7.6 °C 34384.8 hPa Calm     70 % 0 mm 0.0 W/m2 CLR
01:54 -4.3 °C -7.6 °C 34384.8 hPa Calm     70 % 0 mm 0.0 W/m2 CLR
01:59 -4.4 °C -7.7 °C 34384.8 hPa Calm     70 % 0 mm 0.0 W/m2 CLR
02:04 -4.4 °C -7.7 °C 34384.8 hPa Calm     70 % 0 mm 0.0 W/m2 CLR
02:09 -4.5 °C -7.7 °C 34384.8 hPa Calm     70 % 0 mm 0.0 W/m2 CLR
02:14 -4.5 °C -7.7 °C 34384.8 hPa Calm     70 % 0 mm 0.0 W/m2 CLR
02:19 -4.5 °C -7.6 °C 34384.8 hPa Calm     71 % 0 mm 0.0 W/m2 CLR
02:24 -4.5 °C -7.6 °C 34371.3 hPa Calm     71 % 0 mm 0.0 W/m2 CLR
02:29 -4.5 °C -7.4 °C 34371.3 hPa Calm     72 % 0 mm 0.0 W/m2 CLR
02:34 -4.5 °C -7.6 °C 34371.3 hPa Calm     71 % 0 mm 0.0 W/m2 CLR
02:40 -4.5 °C -7.6 °C 34371.3 hPa Calm     71 % 0 mm 0.0 W/m2 CLR
02:45 -4.6 °C -7.6 °C 34371.3 hPa Calm     72 % 0 mm 0.0 W/m2 CLR
02:50 -4.6 °C -7.6 °C 34371.3 hPa Calm     72 % 0 mm 0.0 W/m2 CLR
02:55 -4.7 °C -7.5 °C 34371.3 hPa Calm     73 % 0 mm 0.0 W/m2 CLR
03:00 -4.7 °C -7.7 °C 34371.3 hPa Calm     72 % 0 mm 0.0 W/m2 CLR
03:05 -4.8 °C -7.7 °C 34371.3 hPa Calm     72 % 0 mm 0.0 W/m2 CLR
03:10 -4.8 °C -7.6 °C 34371.3 hPa Calm     73 % 0 mm 0.0 W/m2 CLR
03:15 -4.9 °C -7.6 °C 34371.3 hPa Calm     74 % 0 mm 0.0 W/m2 CLR
03:20 -4.9 °C -7.6 °C 34371.3 hPa Calm     74 % 0 mm 0.0 W/m2 CLR
03:25 -4.9 °C -8.1 °C 34371.3 hPa Calm     71 % 0 mm 0.0 W/m2 CLR
03:30 -5.1 °C -7.9 °C 34371.3 hPa Calm     73 % 0 mm 0.0 W/m2 CLR
03:35 -5.1 °C -7.7 °C 34371.3 hPa Calm     75 % 0 mm 0.0 W/m2 CLR
03:40 -5.1 °C -7.6 °C 34371.3 hPa Calm     76 % 0 mm 0.0 W/m2 CLR
03:45 -5 °C -7.6 °C 34371.3 hPa ENE 3.1 km/h   75 % 0 mm 0.0 W/m2 CLR
03:50 -4.9 °C -7.6 °C 34371.3 hPa Calm     75 % 0 mm 0.0 W/m2 CLR
03:55 -4.9 °C -7.6 °C 34371.3 hPa Calm     75 % 0 mm 0.0 W/m2 CLR
04:00 -5.1 °C -7.7 °C 34371.3 hPa Calm     74 % 0 mm 0.0 W/m2 CLR
04:05 -5.2 °C -8.1 °C 34371.3 hPa Calm     72 % 0 mm 0.0 W/m2 CLR
04:10 -5.2 °C -8.1 °C 34371.3 hPa Calm     73 % 0 mm 0.0 W/m2 CLR
04:15 -5.3 °C -8.1 °C 34371.3 hPa Calm     73 % 0 mm 0.0 W/m2 CLR
04:20 -5.4 °C -8.2 °C 34371.3 hPa Calm     73 % 0 mm 0.0 W/m2 CLR
04:25 -5.4 °C -8 °C 34371.3 hPa Calm     75 % 0 mm 0.0 W/m2 CLR
04:30 -5.5 °C -8.2 °C 34371.3 hPa Calm     74 % 0 mm 0.0 W/m2 CLR
04:35 -5.6 °C -8.3 °C 34371.3 hPa Calm     74 % 0 mm 0.0 W/m2 CLR
04:40 -5.7 °C -8.3 °C 34371.3 hPa Calm     74 % 0 mm 0.0 W/m2 CLR
04:45 -5.7 °C -8.4 °C 34371.3 hPa Calm     74 % 0 mm 0.0 W/m2 CLR
04:50 -5.8 °C -8.3 °C 34371.3 hPa Calm     75 % 0 mm 0.0 W/m2 CLR
04:55 -5.8 °C -8.4 °C 34371.3 hPa Calm     75 % 0 mm 0.0 W/m2 CLR
05:00 -5.8 °C -8.3 °C 34371.3 hPa Calm     76 % 0 mm 0.0 W/m2 CLR
05:05 -5.9 °C -8.4 °C 34371.3 hPa Calm     75 % 0 mm 0.0 W/m2 CLR
05:10 -5.9 °C -8.5 °C 34371.3 hPa Calm     75 % 0 mm 0.0 W/m2 CLR
05:15 -6 °C -8.6 °C 34361.1 hPa Calm     75 % 0 mm 0.0 W/m2 CLR
05:21 -6.1 °C -8.6 °C 34371.3 hPa Calm     75 % 0 mm 0.0 W/m2 CLR
05:22 -6.1 °C -8.6 °C 34371.3 hPa Calm     75 % 0 mm 0.0 W/m2 CLR
05:24 -6.1 °C -8.7 °C 34361.1 hPa Calm     75 % 0 mm 0.0 W/m2 CLR
05:27 -6.1 °C -8.7 °C 34371.3 hPa Calm     75 % 0 mm 0.0 W/m2 CLR
05:31 -6.2 °C -8.6 °C 34371.3 hPa Calm     76 % 0 mm 0.0 W/m2 CLR
05:36 -6.2 °C -8.4 °C 34371.3 hPa Calm     78 % 0 mm 0.0 W/m2 CLR
05:41 -6.2 °C -8.5 °C 34361.1 hPa Calm     77 % 0 mm 0.0 W/m2 CLR
05:46 -6.2 °C -8.4 °C 34361.1 hPa Calm     78 % 0 mm 0.0 W/m2 CLR
05:51 -6.3 °C -8.5 °C 34361.1 hPa Calm     78 % 0 mm 0.0 W/m2 CLR
05:56 -6.3 °C -8.7 °C 34361.1 hPa Calm     76 % 0 mm 0.0 W/m2 CLR
06:01 -6.3 °C -8.8 °C 34371.3 hPa Calm     76 % 0 mm 0.0 W/m2 CLR
06:06 -6.4 °C -8.8 °C 34371.3 hPa Calm     76 % 0 mm 0.0 W/m2 CLR
06:11 -6.4 °C -8.8 °C 34371.3 hPa Calm     77 % 0 mm 0.0 W/m2 CLR
06:16 -6.5 °C -8.8 °C 34371.3 hPa Calm     77 % 0 mm 0.0 W/m2 CLR
06:21 -6.5 °C -8.7 °C 34371.3 hPa Calm     78 % 0 mm 0.0 W/m2 CLR
06:26 -6.6 °C -8.8 °C 34371.3 hPa Calm     77 % 0 mm 0.0 W/m2 CLR
06:31 -6.6 °C -8.8 °C 34371.3 hPa Calm     78 % 0 mm 0.0 W/m2 CLR
06:36 -6.6 °C -8.8 °C 34371.3 hPa Calm     78 % 0 mm 0.0 W/m2 CLR
06:41 -6.6 °C -8.8 °C 34371.3 hPa Calm     78 % 0 mm 0.0 W/m2 CLR
06:46 -6.7 °C -9 °C 34371.3 hPa Calm     77 % 0 mm 0.0 W/m2 CLR
06:51 -6.7 °C -8.8 °C 34371.3 hPa Calm     78 % 0 mm 0.0 W/m2 CLR
06:56 -6.7 °C -9 °C 34371.3 hPa Calm     77 % 0 mm 0.0 W/m2 CLR
07:01 -6.7 °C -8.9 °C 34371.3 hPa Calm     78 % 0 mm 0.0 W/m2 CLR
07:06 -6.7 °C -8.8 °C 34371.3 hPa Calm     79 % 0 mm 0.0 W/m2 OVC
07:11 -6.7 °C -8.7 °C 34371.3 hPa Calm     80 % 0 mm 0.0 W/m2 OVC
07:16 -6.7 °C -9.1 °C 34371.3 hPa Calm     77 % 0 mm 5.0 W/m2 OVC
07:21 -6.7 °C -9.1 °C 34371.3 hPa Calm     76 % 0 mm 7.0 W/m2 BKN
07:26 -6.8 °C -9.1 °C 34371.3 hPa Calm     77 % 0 mm 11.0 W/m2 BKN
07:31 -6.8 °C -9.1 °C 34371.3 hPa Calm     77 % 0 mm 14.0 W/m2 BKN
07:36 -6.8 °C -9.1 °C 34371.3 hPa Calm     77 % 0 mm 19.0 W/m2 BKN
07:41 -6.8 °C -9.1 °C 34371.3 hPa Calm     77 % 0 mm 23.0 W/m2 BKN
07:46 -6.8 °C -9.1 °C 34371.3 hPa Calm     77 % 0 mm 28.0 W/m2 BKN
07:51 -6.8 °C -9.1 °C 34371.3 hPa Calm     77 % 0 mm 37.0 W/m2 BKN
07:56 -6.7 °C -9 °C 34371.3 hPa Calm     77 % 0 mm 44.0 W/m2 BKN
08:01 -6.6 °C -8.9 °C 34371.3 hPa Calm     77 % 0 mm 51.0 W/m2 SCT
08:06 -6.5 °C -8.9 °C 34371.3 hPa Calm     76 % 0 mm 65.0 W/m2 SCT
08:11 -6.3 °C -8.9 °C 34371.3 hPa Calm     75 % 0 mm 77.0 W/m2 FEW
08:16 -6.2 °C -8.9 °C 34371.3 hPa Calm     74 % 0 mm 91.0 W/m2 FEW
08:21 -6.1 °C -8.8 °C 34371.3 hPa Calm     74 % 0 mm 107.0 W/m2 CLR
08:26 -5.9 °C -8.7 °C 34371.3 hPa Calm     73 % 0 mm 121.0 W/m2 CLR
08:27 -5.9 °C -8.7 °C 34371.3 hPa Calm     73 % 0 mm 121.0 W/m2 CLR
08:32 -5.7 °C -8.4 °C 34384.8 hPa Calm     74 % 0 mm 137.0 W/m2 CLR
08:37 -5.6 °C -8.4 °C 34384.8 hPa Calm     73 % 0 mm 156.0 W/m2 CLR
08:42 -5.4 °C -8.3 °C 34384.8 hPa Calm     72 % 0 mm 172.0 W/m2 CLR
08:47 -5.3 °C -8.5 °C 34371.3 hPa Calm     70 % 0 mm 188.0 W/m2 CLR
08:52 -5.3 °C -8.3 °C 34384.8 hPa Calm     71 % 0 mm 202.0 W/m2 CLR
08:57 -5.1 °C -8.3 °C 34384.8 hPa Calm     70 % 0 mm 221.0 W/m2 CLR
09:02 -4.8 °C -8.2 °C 34384.8 hPa Calm     69 % 0 mm 237.0 W/m2 CLR
09:07 -4.6 °C -8.1 °C 34384.8 hPa Calm     68 % 0 mm 250.0 W/m2 CLR
09:12 -4.5 °C -7.9 °C 34384.8 hPa Calm     68 % 0 mm 264.0 W/m2 CLR
09:17 -4.2 °C -7.8 °C 34384.8 hPa Calm     67 % 0 mm 200.0 W/m2 CLR
09:22 -4 °C -7.8 °C 34384.8 hPa Calm     66 % 0 mm 116.0 W/m2 CLR
09:27 -3.8 °C -7.6 °C 34384.8 hPa Calm     66 % 0 mm 311.0 W/m2 CLR
09:32 -3.8 °C -7.6 °C 34384.8 hPa Calm     66 % 0 mm 330.0 W/m2 CLR
09:37 -3.7 °C -7.4 °C 34384.8 hPa Calm     66 % 0 mm 345.0 W/m2 CLR
09:42 -3.6 °C -7.4 °C 34384.8 hPa Calm     65 % 0 mm 359.0 W/m2 CLR
09:47 -3.5 °C -7.4 °C 34384.8 hPa Calm     65 % 0 mm 376.0 W/m2 CLR
09:52 -3.4 °C -7.3 °C 34371.3 hPa Calm     65 % 0 mm 396.0 W/m2 CLR
09:57 -3.2 °C -7.2 °C 34371.3 hPa Calm     65 % 0 mm 410.0 W/m2 CLR
10:02 -3.1 °C -7.2 °C 34371.3 hPa Calm     64 % 0 mm 420.0 W/m2 CLR
10:07 -2.9 °C -7.2 °C 34371.3 hPa Calm     63 % 0 mm 434.0 W/m2 CLR
10:12 -2.7 °C -7.1 °C 34371.3 hPa Calm     62 % 0 mm 450.0 W/m2 CLR
10:17 -2.4 °C -7.1 °C 34371.3 hPa Calm     61 % 0 mm 466.0 W/m2 CLR
10:22 -2.3 °C -7 °C 34384.8 hPa ENE 11.9 km/h 11.9 km/h 60 % 0 mm 478.0 W/m2 CLR
10:27 -2.2 °C -7.1 °C 34384.8 hPa Calm     59 % 0 mm 494.0 W/m2 CLR
10:32 -2.2 °C -6.9 °C 34384.8 hPa ENE 3.1 km/h 3.1 km/h 60 % 0 mm 506.0 W/m2 CLR
10:37 -2.1 °C -6.8 °C 34384.8 hPa ENE 9 km/h 9 km/h 60 % 0 mm 520.0 W/m2 CLR
10:42 -2.1 °C -6.9 °C 34384.8 hPa ENE 9 km/h   59 % 0 mm 533.0 W/m2 CLR
10:47 -1.9 °C -6.8 °C 34384.8 hPa ENE 9 km/h 9 km/h 59 % 0 mm 547.0 W/m2 CLR
10:52 -1.8 °C -6.8 °C 34384.8 hPa ENE 12.9 km/h 12.9 km/h 58 % 0 mm 559.0 W/m2 CLR
10:57 -1.8 °C -7 °C 34371.3 hPa ENE 15.6 km/h 15.6 km/h 57 % 0 mm 575.0 W/m2 CLR
11:02 -1.8 °C -6.8 °C 34371.3 hPa ENE 23.8 km/h 23.8 km/h 58 % 0 mm 587.0 W/m2 CLR
11:07 -1.7 °C -6.8 °C 34371.3 hPa ENE 17.9 km/h 17.9 km/h 58 % 0 mm 596.0 W/m2 CLR
11:12 -1.7 °C -6.9 °C 34384.8 hPa East 10.3 km/h 10.3 km/h 57 % 0 mm 606.0 W/m2 CLR
11:17 -1.7 °C -6.7 °C 34371.3 hPa ESE 20.9 km/h 20.9 km/h 58 % 0 mm 619.0 W/m2 CLR
11:22 -1.6 °C -6.7 °C 34371.3 hPa ENE 12.9 km/h 12.9 km/h 58 % 0 mm 629.0 W/m2 CLR
11:27 -1.5 °C -6.7 °C 34371.3 hPa NE 23.8 km/h 23.8 km/h 57 % 0 mm 636.0 W/m2 CLR
11:32 -1.3 °C -6.9 °C 34371.3 hPa North 18.2 km/h 18.2 km/h 55 % 0 mm 649.0 W/m2 CLR
11:37 -1.2 °C -6.7 °C 34361.1 hPa NNE 15 km/h 15 km/h 55 % 0 mm 659.0 W/m2 CLR
11:42 -1 °C -6.7 °C 34361.1 hPa East 11.9 km/h 11.9 km/h 54 % 0 mm 673.0 W/m2 CLR
11:47 -1 °C -6.8 °C 34361.1 hPa NE 9 km/h   54 % 0 mm 682.0 W/m2 CLR
11:53 -0.9 °C -6.9 °C 34361.1 hPa NNE 9 km/h   53 % 0 mm 693.0 W/m2 CLR
11:58 -0.9 °C -6.8 °C 34371.3 hPa East 11.9 km/h 11.9 km/h 53 % 0 mm 703.0 W/m2 CLR
12:03 -0.8 °C -6.9 °C 34361.1 hPa ENE 17.9 km/h 17.9 km/h 52 % 0 mm 712.0 W/m2 CLR
12:08 -0.7 °C -6.8 °C 34361.1 hPa East 10.3 km/h 10.3 km/h 52 % 0 mm 722.0 W/m2 CLR
12:13 -0.6 °C -6.9 °C 34361.1 hPa ENE 11.9 km/h 11.9 km/h 51 % 0 mm 731.0 W/m2 CLR
12:18 -0.7 °C -7 °C 34347.6 hPa ENE 20.9 km/h 20.9 km/h 51 % 0 mm 740.0 W/m2 CLR
12:23 -0.7 °C -6.9 °C 34347.6 hPa East 3.1 km/h   51 % 0 mm 745.0 W/m2 CLR
12:28 -0.5 °C -6.8 °C 34347.6 hPa ENE 11.9 km/h 11.9 km/h 51 % 0 mm 756.0 W/m2 CLR
12:33 -0.3 °C -7 °C 34347.6 hPa SE 9 km/h 9 km/h 49 % 0 mm 765.0 W/m2 CLR
12:38 -0.2 °C -7.1 °C 34347.6 hPa South 9 km/h 9 km/h 48 % 0 mm 770.0 W/m2 CLR
12:43 -0.2 °C -7.1 °C 34337.4 hPa Calm     48 % 0 mm 775.0 W/m2 CLR
12:48 -0.1 °C -7.2 °C 34337.4 hPa Calm     47 % 0 mm 786.0 W/m2 CLR
12:53 0.2 °C -7.1 °C 34337.4 hPa NE 3.1 km/h 3.1 km/h 46 % 0 mm 791.0 W/m2 CLR
12:58 0.4 °C -7.1 °C 34337.4 hPa Calm     45 % 0 mm 796.0 W/m2 CLR
13:03 0.6 °C -7.3 °C 34327.3 hPa NE 9 km/h 9 km/h 43 % 0 mm 805.0 W/m2 CLR
13:08 0.6 °C -7.3 °C 34327.3 hPa Calm     43 % 0 mm 803.0 W/m2 CLR
13:13 0.7 °C -7.3 °C 34327.3 hPa Calm     43 % 0 mm 810.0 W/m2 CLR
13:18 0.7 °C -7.7 °C 34327.3 hPa West 3.1 km/h 3.1 km/h 41 % 0 mm 814.0 W/m2 CLR
13:23 0.8 °C -7.6 °C 34313.7 hPa NNE 11.9 km/h 11.9 km/h 41 % 0 mm 819.0 W/m2 CLR
13:28 0.9 °C -7.3 °C 34313.7 hPa Calm     42 % 0 mm 821.0 W/m2 CLR
13:33 1 °C -7.4 °C 34313.7 hPa NE 9 km/h 9 km/h 41 % 0 mm 828.0 W/m2 CLR
13:38 1.2 °C -7.2 °C 34313.7 hPa Calm     41 % 0 mm 833.0 W/m2 CLR
13:43 1.3 °C -7.3 °C 34313.7 hPa NE 20.9 km/h 20.9 km/h 40 % 0 mm 831.0 W/m2 CLR
13:48 1.3 °C -7.6 °C 34303.6 hPa North 9 km/h 9 km/h 39 % 0 mm 835.0 W/m2 CLR
13:53 1.3 °C -7.6 °C 34313.7 hPa Calm     39 % 0 mm 837.0 W/m2 CLR
13:58 1.4 °C -7.4 °C 34303.6 hPa East 11.9 km/h 11.9 km/h 39 % 0 mm 837.0 W/m2 CLR
14:03 1.5 °C -7.4 °C 34303.6 hPa East 17.9 km/h 17.9 km/h 39 % 0 mm 840.0 W/m2 CLR
14:08 1.4 °C -7.4 °C 34303.6 hPa East 12.9 km/h 12.9 km/h 39 % 0 mm 838.0 W/m2 CLR
14:13 1.5 °C -7.4 °C 34303.6 hPa Calm     39 % 0 mm 840.0 W/m2 CLR
14:18 1.7 °C -7.7 °C 34303.6 hPa ENE 17.9 km/h 17.9 km/h 37 % 0 mm 830.0 W/m2 CLR
14:23 1.8 °C -7.6 °C 34293.4 hPa ENE 9 km/h 9 km/h 37 % 0 mm 831.0 W/m2 CLR
14:28 2 °C -7.4 °C 34293.4 hPa ENE 26.9 km/h 26.9 km/h 37 % 0 mm 833.0 W/m2 CLR
14:33 2.1 °C -7.8 °C 34293.4 hPa East 17.9 km/h 17.9 km/h 35 % 0 mm 831.0 W/m2 CLR
14:38 1.9 °C -7.7 °C 34279.9 hPa ENE 11.9 km/h 11.9 km/h 36 % 0 mm 830.0 W/m2 CLR
14:43 2.1 °C -7.8 °C 34279.9 hPa ESE 9 km/h   35 % 0 mm 830.0 W/m2 CLR
14:48 2.2 °C -8 °C 34279.9 hPa NE 3.1 km/h   34 % 0 mm 828.0 W/m2 CLR
14:53 2.4 °C -7.8 °C 34279.9 hPa NE 18.2 km/h 18.2 km/h 34 % 0 mm 819.0 W/m2 CLR
14:58 2.4 °C -7.7 °C 34279.9 hPa ENE 20.9 km/h 20.9 km/h 34 % 0 mm 819.0 W/m2 CLR
15:03 2.5 °C -8 °C 34279.9 hPa NE 15 km/h 15 km/h 33 % 0 mm 809.0 W/m2 CLR
15:08 2.6 °C -7.9 °C 34279.9 hPa Calm     33 % 0 mm 800.0 W/m2 CLR
15:13 2.7 °C -8 °C 34269.7 hPa NE 17.9 km/h 17.9 km/h 32 % 0 mm 800.0 W/m2 CLR
15:18 2.8 °C -8 °C 34269.7 hPa ENE 25.9 km/h 25.9 km/h 32 % 0 mm 789.0 W/m2 CLR
15:23 2.7 °C -8.1 °C 34269.7 hPa ENE 20.9 km/h 20.9 km/h 32 % 0 mm 782.0 W/m2 CLR
15:28 2.6 °C -8.2 °C 34269.7 hPa NE 29.8 km/h 29.8 km/h 32 % 0 mm 773.0 W/m2 CLR
15:33 2.7 °C -8.4 °C 34269.7 hPa NNE 15 km/h 15 km/h 31 % 0 mm 773.0 W/m2 CLR
15:38 2.7 °C -8.1 °C 34269.7 hPa NE 29.8 km/h 29.8 km/h 32 % 0 mm 765.0 W/m2 CLR
15:43 2.7 °C -8 °C 34269.7 hPa NNE 23.8 km/h 23.8 km/h 32 % 0 mm 758.0 W/m2 CLR
15:48 2.8 °C -8.6 °C 34269.7 hPa ENE 20.8 km/h 20.8 km/h 30 % 0 mm 751.0 W/m2 CLR
15:53 2.7 °C -8.4 °C 34269.7 hPa NE 12.9 km/h 12.9 km/h 31 % 0 mm 744.0 W/m2 CLR
15:58 2.7 °C -8.7 °C 34269.7 hPa East 9 km/h 9 km/h 30 % 0 mm 731.0 W/m2 CLR
16:03 2.7 °C -8.6 °C 34269.7 hPa NE 26.9 km/h 26.9 km/h 30 % 0 mm 724.0 W/m2 CLR
16:08 2.8 °C -8.5 °C 34256.2 hPa NE 29.8 km/h 29.8 km/h 30 % 0 mm 715.0 W/m2 CLR
16:13 2.8 °C -8.8 °C 34256.2 hPa ENE 26.9 km/h 26.9 km/h 29 % 0 mm 703.0 W/m2 CLR
16:18 2.8 °C -8.6 °C 34256.2 hPa ENE 23.8 km/h 23.8 km/h 30 % 0 mm 698.0 W/m2 CLR
16:23 2.7 °C -8.7 °C 34256.2 hPa NE 11.9 km/h 11.9 km/h 30 % 0 mm 679.0 W/m2 CLR
16:28 2.7 °C -8.1 °C 34256.2 hPa NE 25.9 km/h 25.9 km/h 32 % 0 mm 671.0 W/m2 CLR
16:33 2.6 °C -8.4 °C 34256.2 hPa NNE 38.8 km/h 38.8 km/h 31 % 0 mm 659.0 W/m2 CLR
16:38 2.5 °C -8.5 °C 34256.2 hPa North 32.8 km/h 32.8 km/h 31 % 0 mm 645.0 W/m2 CLR
16:43 2.6 °C -8.5 °C 34256.2 hPa NNW 29.8 km/h 29.8 km/h 31 % 0 mm 628.0 W/m2 CLR
16:48 2.6 °C -8.5 °C 34256.2 hPa North 44.7 km/h 44.7 km/h 31 % 0 mm 598.0 W/m2 CLR
16:53 2.6 °C -8.5 °C 34256.2 hPa NNE 15 km/h 15 km/h 31 % 0 mm 555.0 W/m2 CLR
16:58 2.4 °C -8.6 °C 34256.2 hPa NNW 38.8 km/h 38.8 km/h 31 % 0 mm 550.0 W/m2 CLR
17:03 2.5 °C -8.5 °C 34256.2 hPa NNW 33.6 km/h 33.6 km/h 31 % 0 mm 432.0 W/m2 CLR
17:08 2.4 °C -8.6 °C 34256.2 hPa NNW 44.7 km/h 44.7 km/h 31 % 0 mm 573.0 W/m2 CLR
17:13 2.4 °C -8.6 °C 34256.2 hPa North 38.8 km/h 38.8 km/h 31 % 0 mm 276.0 W/m2 CLR
17:18 2.3 °C -8.7 °C 34256.2 hPa NE 15 km/h   31 % 0 mm 489.0 W/m2 CLR
17:23 2.3 °C -8.4 °C 34256.2 hPa ENE 17.9 km/h 17.9 km/h 32 % 0 mm 214.0 W/m2 CLR
17:28 2.2 °C -8.2 °C 34256.2 hPa NNW 29.8 km/h 29.8 km/h 33 % 0 mm 272.0 W/m2 CLR
17:29 2.2 °C -7.9 °C 34256.2 hPa North 17.9 km/h 17.9 km/h 34 % 0 mm 272.0 W/m2 CLR
17:34 2.3 °C -8.1 °C 34256.2 hPa North 9 km/h 9 km/h 33 % 0 mm 251.0 W/m2 CLR
17:39 2.3 °C -7.9 °C 34256.2 hPa North 20.9 km/h 20.9 km/h 34 % 0 mm 253.0 W/m2 CLR
17:44 2.2 °C -8 °C 34256.2 hPa NNW 31.1 km/h 31.1 km/h 34 % 0 mm 246.0 W/m2 CLR
17:49 2.2 °C -8 °C 34256.2 hPa North 15.6 km/h 15.6 km/h 34 % 0 mm 476.0 W/m2 CLR
17:54 2.2 °C -7.9 °C 34256.2 hPa North 12.9 km/h 12.9 km/h 34 % 0 mm 515.0 W/m2 CLR
17:59 2.3 °C -8.2 °C 34256.2 hPa NW 23.8 km/h 23.8 km/h 33 % 0 mm 257.0 W/m2 CLR
18:04 2.3 °C -7.9 °C 34256.2 hPa NNW 15 km/h   34 % 0 mm 431.0 W/m2 CLR
18:09 2.3 °C -7.9 °C 34256.2 hPa NNE 23.8 km/h 23.8 km/h 34 % 0 mm 404.0 W/m2 CLR
18:14 2.3 °C -7.9 °C 34256.2 hPa North 32.8 km/h 32.8 km/h 34 % 0 mm 411.0 W/m2 CLR
18:19 2.4 °C -7.8 °C 34256.2 hPa NW 23.8 km/h 23.8 km/h 34 % 0 mm 371.0 W/m2 CLR
18:24 2.4 °C -8.1 °C 34256.2 hPa NNW 15 km/h 15 km/h 33 % 0 mm 186.0 W/m2 CLR
18:29 2.4 °C -7.8 °C 34256.2 hPa NE 18.2 km/h 18.2 km/h 34 % 0 mm 316.0 W/m2 CLR
18:34 2.3 °C -7.9 °C 34256.2 hPa ENE 15 km/h 15 km/h 34 % 0 mm 327.0 W/m2 CLR
18:39 2.2 °C -8 °C 34256.2 hPa North 28.5 km/h 28.5 km/h 34 % 0 mm 348.0 W/m2 CLR
18:45 2.1 °C -8.3 °C 34269.7 hPa North 26.9 km/h 26.9 km/h 33 % 0 mm 183.0 W/m2 CLR
18:50 2 °C -8.4 °C 34269.7 hPa North 29.8 km/h 29.8 km/h 33 % 0 mm 285.0 W/m2 CLR
18:55 2.1 °C -7.9 °C 34269.7 hPa NNW 35.7 km/h 35.7 km/h 35 % 0 mm 283.0 W/m2 CLR
19:00 2.1 °C -7.8 °C 34269.7 hPa ESE 12.9 km/h 12.9 km/h 35 % 0 mm 192.0 W/m2 CLR
19:05 1.8 °C -7.8 °C 34269.7 hPa ENE 9 km/h 9 km/h 36 % 0 mm 190.0 W/m2 CLR
19:10 1.6 °C -8 °C 34279.9 hPa Calm     36 % 0 mm 134.0 W/m2 CLR
19:15 1.5 °C -7.9 °C 34279.9 hPa NNW 26.9 km/h 26.9 km/h 37 % 0 mm 127.0 W/m2 CLR
19:20 1.3 °C -8 °C 34279.9 hPa North 44.7 km/h 44.7 km/h 37 % 0 mm 123.0 W/m2 CLR
19:25 1.1 °C -7.9 °C 34279.9 hPa NNW 33.6 km/h 33.6 km/h 38 % 0 mm 102.0 W/m2 CLR
19:30 0.9 °C -8.1 °C 34293.4 hPa North 44.7 km/h 44.7 km/h 38 % 0 mm 91.0 W/m2 CLR
19:35 0.8 °C -7.9 °C 34293.4 hPa NNW 41.7 km/h 41.7 km/h 39 % 0 mm 83.0 W/m2 CLR
19:40 0.7 °C -8.1 °C 34293.4 hPa North 47.6 km/h 47.6 km/h 39 % 0 mm 76.0 W/m2 FEW
19:45 0.4 °C -8.1 °C 34293.4 hPa NNW 50.7 km/h 50.7 km/h 40 % 0 mm 70.0 W/m2 FEW
19:50 0.2 °C -8.1 °C 34303.6 hPa NW 50.7 km/h 50.7 km/h 41 % 0 mm 72.0 W/m2 FEW
19:55 0 °C -8.3 °C 34303.6 hPa NNW 64.7 km/h 64.7 km/h 41 % 0 mm 79.0 W/m2 FEW
20:00 -0.3 °C -8.3 °C 34303.6 hPa NNW 62.6 km/h 62.6 km/h 42 % 0 mm 63.0 W/m2 SCT
20:05 -0.5 °C -8.3 °C 34303.6 hPa NW 62.6 km/h 62.6 km/h 43 % 0 mm 54.0 W/m2 SCT
20:10 -0.6 °C -8.2 °C 34313.7 hPa NNW 59.5 km/h 59.5 km/h 44 % 0 mm 46.0 W/m2 SCT
20:15 -0.7 °C -8.3 °C 34313.7 hPa NW 71.5 km/h 71.5 km/h 44 % 0 mm 40.0 W/m2 BKN
20:20 -0.9 °C -8.2 °C 34313.7 hPa NNW 65.5 km/h 65.5 km/h 45 % 0 mm 33.0 W/m2 BKN
20:25 -1 °C -8.4 °C 34327.3 hPa NNW 56.6 km/h 56.6 km/h 45 % 0 mm 28.0 W/m2 BKN
20:30 -1.1 °C -8.4 °C 34327.3 hPa NW 68.6 km/h 68.6 km/h 45 % 0 mm 26.0 W/m2 BKN
20:35 -1.2 °C -8.6 °C 34327.3 hPa NW 50.7 km/h 50.7 km/h 45 % 0 mm 23.0 W/m2 BKN
20:40 -1.3 °C -8.7 °C 34327.3 hPa NW 68.6 km/h 68.6 km/h 45 % 0 mm 16.0 W/m2 BKN
20:45 -1.6 °C -8.8 °C 34337.4 hPa NW 59.5 km/h 59.5 km/h 45 % 0 mm 12.0 W/m2 BKN
20:50 -1.7 °C -9 °C 34337.4 hPa NW 54.4 km/h 54.4 km/h 45 % 0 mm 7.0 W/m2 BKN
20:55 -1.8 °C -9.1 °C 34337.4 hPa NW 44.7 km/h 44.7 km/h 45 % 0 mm 0.0 W/m2 OVC
21:00 -1.8 °C -9.1 °C 34347.6 hPa NNW 50.7 km/h 50.7 km/h 45 % 0 mm 0.0 W/m2 CLR
21:05 -1.9 °C -9.3 °C 34347.6 hPa NW 62.6 km/h 62.6 km/h 44 % 0 mm 0.0 W/m2 CLR
21:10 -1.9 °C -9.4 °C 34347.6 hPa NW 50.7 km/h 50.7 km/h 44 % 0 mm 0.0 W/m2 CLR
21:15 -2 °C -9.5 °C 34347.6 hPa NNW 56.6 km/h 56.6 km/h 44 % 0 mm 0.0 W/m2 CLR
21:20 -2.1 °C -9.5 °C 34361.1 hPa NW 47.6 km/h 47.6 km/h 44 % 0 mm 0.0 W/m2 CLR
21:25 -2.1 °C -9.6 °C 34361.1 hPa NNW 41.7 km/h 41.7 km/h 44 % 0 mm 0.0 W/m2 CLR
21:30 -2.1 °C -9.6 °C 34371.3 hPa NW 44.7 km/h 44.7 km/h 44 % 0 mm 0.0 W/m2 CLR
21:35 -2.2 °C -9.7 °C 34371.3 hPa WNW 50.7 km/h 50.7 km/h 44 % 0 mm 0.0 W/m2 CLR
21:40 -2.3 °C -9.7 °C 34371.3 hPa NNW 62.6 km/h 62.6 km/h 44 % 0 mm 0.0 W/m2 CLR
21:45 -2.3 °C -9.8 °C 34384.8 hPa NW 53.6 km/h 53.6 km/h 44 % 0 mm 0.0 W/m2 CLR
21:50 -2.4 °C -9.6 °C 34384.8 hPa WNW 50.7 km/h 50.7 km/h 45 % 0 mm 0.0 W/m2 CLR
21:55 -2.5 °C -9.7 °C 34384.8 hPa WNW 56.6 km/h 56.6 km/h 45 % 0 mm 0.0 W/m2 CLR
22:00 -2.6 °C -9.8 °C 34384.8 hPa WNW 67.3 km/h 67.3 km/h 45 % 0 mm 0.0 W/m2 CLR
22:05 -2.6 °C -9.6 °C 34384.8 hPa NW 59.5 km/h 59.5 km/h 46 % 0 mm 0.0 W/m2 CLR
22:10 -2.7 °C -9.7 °C 34384.8 hPa WNW 50.7 km/h 50.7 km/h 46 % 0 mm 0.0 W/m2 CLR
22:15 -2.7 °C -9.8 °C 34395 hPa WNW 29.8 km/h 29.8 km/h 46 % 0 mm 0.0 W/m2 CLR
22:20 -2.8 °C -9.8 °C 34395 hPa NW 38.8 km/h 38.8 km/h 46 % 0 mm 0.0 W/m2 CLR
22:25 -2.9 °C -9.9 °C 34395 hPa WNW 41.7 km/h 41.7 km/h 46 % 0 mm 0.0 W/m2 CLR
22:30 -2.9 °C -9.7 °C 34395 hPa West 50.7 km/h 50.7 km/h 47 % 0 mm 0.0 W/m2 CLR
22:35 -2.9 °C -9.8 °C 34395 hPa West 29.8 km/h 29.8 km/h 47 % 0 mm 0.0 W/m2 CLR
22:40 -3 °C -9.6 °C 34395 hPa West 36.2 km/h 36.2 km/h 48 % 0 mm 0.0 W/m2 CLR
22:45 -3.1 °C -9.7 °C 34395 hPa WNW 49.2 km/h 49.2 km/h 48 % 0 mm 0.0 W/m2 CLR
22:51 -3.2 °C -9.6 °C 34405.1 hPa West 35.7 km/h 35.7 km/h 49 % 0 mm 0.0 W/m2 CLR
22:56 -3.2 °C -9.7 °C 34405.1 hPa West 38.8 km/h 38.8 km/h 49 % 0 mm 0.0 W/m2 CLR
23:01 -3.3 °C -9.6 °C 34405.1 hPa West 38.8 km/h 38.8 km/h 50 % 0 mm 0.0 W/m2 CLR
23:06 -3.4 °C -9.6 °C 34405.1 hPa WNW 32.8 km/h 32.8 km/h 50 % 0 mm 0.0 W/m2 CLR
23:11 -3.4 °C -9.6 °C 34405.1 hPa West 29.8 km/h 29.8 km/h 50 % 0 mm 0.0 W/m2 CLR
23:16 -3.4 °C -9.7 °C 34405.1 hPa West 50.7 km/h 50.7 km/h 50 % 0 mm 0.0 W/m2 CLR
23:21 -3.5 °C -9.7 °C 34405.1 hPa West 35.7 km/h 35.7 km/h 50 % 0 mm 0.0 W/m2 CLR
23:26 -3.5 °C -9.6 °C 34405.1 hPa WNW 32.8 km/h 32.8 km/h 51 % 0 mm 0.0 W/m2 CLR
23:31 -3.6 °C -9.6 °C 34418.7 hPa WNW 44.7 km/h 44.7 km/h 51 % 0 mm 0.0 W/m2 CLR
23:36 -3.6 °C -9.7 °C 34418.7 hPa WSW 38.8 km/h 38.8 km/h 51 % 0 mm 0.0 W/m2 CLR
23:41 -3.7 °C -9.7 °C 34418.7 hPa West 50.7 km/h 50.7 km/h 51 % 0 mm 0.0 W/m2 CLR
23:46 -3.7 °C -9.6 °C 34418.7 hPa West 44.7 km/h 44.7 km/h 52 % 0 mm 0.0 W/m2 CLR
23:51 -3.8 °C -9.6 °C 34418.7 hPa West 38.8 km/h 38.8 km/h 52 % 0 mm 0.0 W/m2 CLR
23:56 -3.8 °C -9.7 °C 34418.7 hPa WNW 50.7 km/h 50.7 km/h 52 % 0 mm 0.0 W/m2 CLR
Lo Temps de Massalio
Compliments of Weather Underground - 1.25 mb